createdAt,value
2023-03-25T00:00:13.342Z,99.90
2023-03-25T00:02:41.335Z,99.90
2023-03-25T00:05:10.732Z,99.90
2023-03-25T00:07:37.693Z,99.90
2023-03-25T00:10:05.012Z,99.90
2023-03-25T00:12:31.704Z,99.90
2023-03-25T00:14:58.414Z,99.90
2023-03-25T00:17:28.959Z,99.90
2023-03-25T00:19:56.064Z,99.90
2023-03-25T00:22:23.347Z,99.90
2023-03-25T00:24:50.219Z,99.90
2023-03-25T00:27:18.223Z,99.90
2023-03-25T00:29:46.008Z,99.90
2023-03-25T00:32:14.924Z,99.90
2023-03-25T00:34:47.574Z,99.90
2023-03-25T00:37:21.769Z,99.90
2023-03-25T00:39:48.813Z,99.90
2023-03-25T00:42:16.787Z,99.90
2023-03-25T00:44:43.778Z,99.90
2023-03-25T00:47:11.952Z,99.90
2023-03-25T00:49:38.791Z,99.90
2023-03-25T00:52:05.530Z,99.90
2023-03-25T00:54:34.232Z,99.90
2023-03-25T00:57:01.179Z,99.90
2023-03-25T00:59:27.990Z,99.90
2023-03-25T01:01:56.316Z,99.90
2023-03-25T01:04:23.128Z,99.90
2023-03-25T01:06:51.915Z,99.90
2023-03-25T01:09:20.358Z,99.90
2023-03-25T01:11:48.272Z,99.90
2023-03-25T01:14:18.766Z,99.90
2023-03-25T01:16:46.209Z,99.90
2023-03-25T01:19:14.175Z,99.90
2023-03-25T01:21:41.828Z,99.90
2023-03-25T01:24:12.058Z,99.90
2023-03-25T01:26:41.353Z,99.90
2023-03-25T01:29:08.181Z,99.90
2023-03-25T01:31:35.073Z,99.90
2023-03-25T01:34:02.174Z,99.90
2023-03-25T01:36:29.696Z,99.90
2023-03-25T01:38:58.990Z,99.90
2023-03-25T01:41:29.206Z,99.90
2023-03-25T01:44:09.067Z,99.90
2023-03-25T01:46:39.442Z,99.90
2023-03-25T01:49:09.347Z,99.90
2023-03-25T01:51:40.633Z,99.90
2023-03-25T01:54:08.135Z,99.90
2023-03-25T01:56:38.733Z,99.90
2023-03-25T01:59:08.745Z,99.90
2023-03-25T02:01:36.822Z,99.90
2023-03-25T02:04:09.900Z,99.90
2023-03-25T02:06:44.663Z,99.90
2023-03-25T02:09:16.755Z,99.90
2023-03-25T02:11:43.555Z,99.90
2023-03-25T02:14:14.373Z,99.90
2023-03-25T02:17:06.862Z,99.90
2023-03-25T02:19:47.545Z,99.90
2023-03-25T02:22:25.704Z,99.90
2023-03-25T02:25:10.892Z,99.90
2023-03-25T02:27:54.040Z,99.90
2023-03-25T02:30:45.883Z,99.90
2023-03-25T02:33:37.249Z,99.90
2023-03-25T02:36:16.111Z,99.90
2023-03-25T02:38:45.582Z,99.90
2023-03-25T02:41:25.760Z,99.90
2023-03-25T02:44:06.366Z,99.90
2023-03-25T02:46:36.233Z,99.90
2023-03-25T02:49:10.444Z,99.90
2023-03-25T02:51:44.599Z,99.90
2023-03-25T02:54:13.996Z,99.90
2023-03-25T02:56:44.706Z,99.90
2023-03-25T02:59:15.668Z,99.90
2023-03-25T03:01:44.512Z,99.90
2023-03-25T03:04:11.267Z,99.90
2023-03-25T03:06:43.148Z,99.90
2023-03-25T03:09:46.293Z,99.90
2023-03-25T03:12:24.384Z,99.90
2023-03-25T03:15:04.296Z,99.90
2023-03-25T03:17:38.592Z,99.90
2023-03-25T03:20:25.485Z,99.90
2023-03-25T03:23:21.031Z,99.90
2023-03-25T03:25:54.510Z,99.90
2023-03-25T03:28:32.221Z,99.90
2023-03-25T03:31:12.044Z,99.90
2023-03-25T03:33:57.369Z,99.90
2023-03-25T03:36:32.738Z,99.90
2023-03-25T03:39:07.393Z,99.90
2023-03-25T03:41:42.030Z,99.90
2023-03-25T03:44:14.576Z,99.90
2023-03-25T03:47:13.124Z,99.90
2023-03-25T03:49:45.297Z,99.90
2023-03-25T03:52:21.582Z,99.90
2023-03-25T03:55:14.668Z,99.90
2023-03-25T03:57:51.479Z,99.90
2023-03-25T04:00:44.543Z,99.90
2023-03-25T04:03:24.365Z,99.90
2023-03-25T04:06:00.833Z,99.90
2023-03-25T04:09:08.989Z,99.90
2023-03-25T04:11:59.200Z,99.90
2023-03-25T04:14:26.322Z,99.90
2023-03-25T04:16:54.439Z,99.90
2023-03-25T04:19:21.148Z,99.90
2023-03-25T04:21:48.789Z,99.90
2023-03-25T04:24:16.941Z,99.90
2023-03-25T04:26:44.083Z,99.90
2023-03-25T04:29:10.814Z,99.90
2023-03-25T04:31:37.887Z,99.90
2023-03-25T04:34:04.742Z,99.90
2023-03-25T04:36:37.925Z,99.90
2023-03-25T04:39:05.100Z,99.90
2023-03-25T04:41:33.682Z,99.90
2023-03-25T04:44:00.459Z,99.90
2023-03-25T04:46:27.310Z,99.90
2023-03-25T04:48:56.919Z,99.90
2023-03-25T04:51:23.724Z,99.90
2023-03-25T04:53:50.507Z,99.90
2023-03-25T04:56:18.540Z,99.90
2023-03-25T04:58:46.486Z,99.90
2023-03-25T05:01:31.398Z,99.90
2023-03-25T05:04:06.210Z,99.90
2023-03-25T05:06:34.667Z,99.90
2023-03-25T05:09:04.458Z,99.90
2023-03-25T05:11:33.474Z,99.90
2023-03-25T05:14:00.554Z,99.90
2023-03-25T05:16:27.396Z,99.90
2023-03-25T05:18:54.105Z,99.90
2023-03-25T05:21:21.741Z,99.90
2023-03-25T05:23:48.563Z,99.90
2023-03-25T05:26:15.283Z,99.90
2023-03-25T05:28:42.351Z,99.90
2023-03-25T05:31:09.067Z,99.90
2023-03-25T05:33:43.404Z,99.90
2023-03-25T05:36:12.080Z,99.90
2023-03-25T05:38:41.869Z,99.90
2023-03-25T05:41:16.780Z,99.90
2023-03-25T05:43:48.233Z,99.90
2023-03-25T05:46:15.436Z,99.90
2023-03-25T05:48:42.963Z,99.90
2023-03-25T05:51:18.500Z,99.90
2023-03-25T05:53:50.188Z,99.90
2023-03-25T05:56:19.273Z,99.90
2023-03-25T05:58:51.126Z,99.90
2023-03-25T06:01:31.826Z,99.90
2023-03-25T06:04:03.479Z,99.90
2023-03-25T06:06:32.342Z,99.90
2023-03-25T06:08:59.207Z,99.90
2023-03-25T06:11:25.970Z,99.90
2023-03-25T06:13:52.953Z,99.90
2023-03-25T06:16:27.965Z,99.90
2023-03-25T06:18:59.935Z,99.90
2023-03-25T06:21:29.229Z,99.90
2023-03-25T06:23:58.391Z,99.90
2023-03-25T06:26:25.823Z,99.90
2023-03-25T06:28:52.654Z,99.90
2023-03-25T06:31:28.372Z,99.90
2023-03-25T06:33:56.730Z,99.90
2023-03-25T06:36:25.564Z,99.90
2023-03-25T06:38:53.146Z,99.90
2023-03-25T06:41:21.248Z,99.90
2023-03-25T06:43:49.021Z,99.90
2023-03-25T06:46:16.315Z,99.90
2023-03-25T06:48:43.273Z,99.90
2023-03-25T06:51:10.156Z,99.90
2023-03-25T06:53:36.899Z,99.90
2023-03-25T06:56:03.719Z,99.90
2023-03-25T06:58:35.333Z,99.90
2023-03-25T07:01:06.986Z,99.90
2023-03-25T07:03:34.974Z,99.90
2023-03-25T07:06:01.876Z,99.90
2023-03-25T07:08:28.718Z,99.90
2023-03-25T07:11:02.015Z,99.90
2023-03-25T07:13:28.765Z,99.90
2023-03-25T07:15:56.372Z,99.90
2023-03-25T07:18:23.217Z,99.90
2023-03-25T07:20:51.331Z,99.90
2023-03-25T07:23:18.094Z,99.90
2023-03-25T07:25:44.857Z,99.90
2023-03-25T07:28:11.555Z,99.90
2023-03-25T07:30:38.250Z,99.90
2023-03-25T07:33:05.055Z,99.90
2023-03-25T07:35:32.029Z,99.90
2023-03-25T07:37:58.760Z,99.90
2023-03-25T07:40:25.439Z,99.90
2023-03-25T07:42:52.134Z,1.00
2023-03-25T07:45:18.844Z,1.00
2023-03-25T07:47:50.487Z,1.00
2023-03-25T07:50:24.550Z,1.00
2023-03-25T07:52:53.265Z,1.00
2023-03-25T07:55:20.187Z,1.00
2023-03-25T07:57:47.082Z,1.00
2023-03-25T08:00:14.566Z,1.00
2023-03-25T08:02:41.931Z,1.00
2023-03-25T08:05:09.157Z,1.00
2023-03-25T08:07:35.842Z,99.90
2023-03-25T08:10:02.705Z,99.90
2023-03-25T08:12:29.407Z,99.90
2023-03-25T08:14:56.110Z,99.90
2023-03-25T08:17:23.311Z,99.90
2023-03-25T08:19:50.026Z,99.90
2023-03-25T08:22:16.717Z,99.90
2023-03-25T08:24:43.703Z,99.90
2023-03-25T08:27:13.741Z,99.90
2023-03-25T08:29:43.829Z,99.90
2023-03-25T08:32:10.877Z,99.90
2023-03-25T08:34:39.997Z,99.90
2023-03-25T08:37:10.080Z,99.90
2023-03-25T08:39:40.219Z,99.90
2023-03-25T08:42:10.815Z,99.90
2023-03-25T08:44:37.739Z,99.90
2023-03-25T08:47:04.864Z,99.90
2023-03-25T08:49:31.822Z,99.90
2023-03-25T08:52:00.327Z,99.90
2023-03-25T08:54:27.741Z,99.90
2023-03-25T08:56:55.689Z,99.90
2023-03-25T08:59:22.790Z,99.90
2023-03-25T09:01:49.688Z,99.90
2023-03-25T09:04:16.702Z,99.90
2023-03-25T09:06:47.275Z,99.90
2023-03-25T09:09:15.728Z,99.90
2023-03-25T09:11:42.562Z,99.90
2023-03-25T09:14:09.390Z,99.90
2023-03-25T09:16:36.086Z,96.00
2023-03-25T09:19:03.212Z,91.80
2023-03-25T09:21:30.066Z,89.80
2023-03-25T09:23:56.756Z,90.70
2023-03-25T09:26:24.479Z,92.00
2023-03-25T09:28:51.189Z,91.50
2023-03-25T09:31:18.474Z,93.20
2023-03-25T09:33:45.276Z,94.60
2023-03-25T09:36:13.083Z,94.80
2023-03-25T09:38:39.771Z,96.30
2023-03-25T09:41:27.628Z,98.40
2023-03-25T09:44:13.446Z,97.40
2023-03-25T09:46:40.694Z,98.10
2023-03-25T09:49:16.407Z,98.80
2023-03-25T09:51:44.725Z,97.10
2023-03-25T09:54:21.358Z,95.40
2023-03-25T09:56:49.346Z,96.40
2023-03-25T09:59:23.470Z,95.30
2023-03-25T10:02:14.531Z,94.40
2023-03-25T10:05:14.043Z,92.90
2023-03-25T10:08:18.254Z,92.40
2023-03-25T10:10:48.939Z,92.20
2023-03-25T10:13:50.263Z,89.40
2023-03-25T10:16:35.649Z,78.70
2023-03-25T10:19:21.608Z,77.70
2023-03-25T10:21:55.676Z,75.60
2023-03-25T10:24:49.691Z,71.30
2023-03-25T10:27:21.495Z,73.00
2023-03-25T10:30:00.526Z,72.30
2023-03-25T10:32:48.267Z,75.60
2023-03-25T10:35:25.706Z,74.70
2023-03-25T10:37:54.585Z,77.60
2023-03-25T10:40:29.848Z,88.80
2023-03-25T10:43:13.477Z,96.90
2023-03-25T10:45:42.497Z,99.90
2023-03-25T10:48:28.117Z,99.90
2023-03-25T10:51:11.913Z,99.20
2023-03-25T10:53:40.735Z,94.10
2023-03-25T10:56:32.800Z,91.50
2023-03-25T10:59:03.405Z,91.50
2023-03-25T11:01:40.181Z,84.40
2023-03-25T11:04:11.633Z,81.90
2023-03-25T11:06:46.013Z,81.20
2023-03-25T11:09:30.686Z,79.00
2023-03-25T11:12:04.560Z,78.90
2023-03-25T11:14:35.994Z,81.50
2023-03-25T11:17:09.399Z,82.70
2023-03-25T11:19:54.141Z,83.70
2023-03-25T11:22:28.581Z,84.00
2023-03-25T11:25:21.306Z,82.50
2023-03-25T11:27:58.830Z,82.80
2023-03-25T11:30:26.694Z,84.40
2023-03-25T11:33:09.312Z,89.00
2023-03-25T11:35:44.075Z,87.90
2023-03-25T11:38:23.025Z,89.90
2023-03-25T11:40:58.019Z,90.90
2023-03-25T11:43:36.131Z,92.70
2023-03-25T11:46:14.762Z,93.10
2023-03-25T11:48:43.935Z,94.20
2023-03-25T11:51:41.493Z,95.10
2023-03-25T11:54:12.781Z,95.50
2023-03-25T11:56:41.955Z,93.30
2023-03-25T11:59:45.598Z,92.60
2023-03-25T12:02:27.248Z,92.70
2023-03-25T12:05:13.294Z,94.00
2023-03-25T12:07:48.742Z,95.10
2023-03-25T12:10:24.480Z,95.30
2023-03-25T12:13:27.339Z,95.90
2023-03-25T12:16:21.366Z,94.30
2023-03-25T12:19:09.167Z,92.20
2023-03-25T12:21:38.979Z,93.20
2023-03-25T12:24:17.496Z,98.80
2023-03-25T12:26:58.503Z,99.90
2023-03-25T12:29:41.920Z,1.00
2023-03-25T12:32:21.240Z,99.90
2023-03-25T12:34:59.373Z,1.00
2023-03-25T12:37:46.705Z,1.00
2023-03-25T12:40:19.470Z,99.90
2023-03-25T12:42:58.190Z,99.90
2023-03-25T12:45:37.799Z,99.90
2023-03-25T12:48:39.565Z,99.90
2023-03-25T12:51:24.469Z,99.90
2023-03-25T12:54:08.822Z,99.90
2023-03-25T12:56:44.642Z,1.00
2023-03-25T13:02:16.929Z,1.00
2023-03-25T13:05:04.670Z,1.00
2023-03-25T13:07:47.630Z,1.00
2023-03-25T13:10:22.078Z,1.00
2023-03-25T13:12:53.798Z,1.00
2023-03-25T13:15:32.621Z,99.90
2023-03-25T13:18:14.893Z,99.90
2023-03-25T13:20:49.639Z,99.90
2023-03-25T13:23:21.490Z,99.90
2023-03-25T13:25:54.021Z,99.90
2023-03-25T13:28:27.326Z,99.90
2023-03-25T13:30:56.508Z,99.90
2023-03-25T13:33:31.095Z,99.90
2023-03-25T13:36:17.773Z,99.90
2023-03-25T13:38:51.952Z,99.90
2023-03-25T13:41:38.657Z,99.90
2023-03-25T13:44:21.044Z,99.90
2023-03-25T13:46:53.391Z,99.90
2023-03-25T13:49:38.103Z,99.90
2023-03-25T13:52:07.435Z,99.90
2023-03-25T13:54:41.515Z,99.90
2023-03-25T13:57:21.890Z,99.90
2023-03-25T14:00:23.166Z,99.90
2023-03-25T14:03:17.856Z,99.90
2023-03-25T14:06:09.813Z,99.90
2023-03-25T14:09:06.676Z,1.00
2023-03-25T14:11:57.254Z,1.00
2023-03-25T14:14:24.620Z,1.00
2023-03-25T14:16:56.514Z,83.50
2023-03-25T14:19:29.991Z,1.00
2023-03-25T14:21:56.942Z,5.50
2023-03-25T14:24:37.060Z,1.00
2023-03-25T14:27:30.457Z,1.00
2023-03-25T14:30:06.040Z,1.00
2023-03-25T14:32:38.711Z,1.00
2023-03-25T14:35:33.897Z,1.00
2023-03-25T14:38:09.860Z,1.00
2023-03-25T14:40:50.848Z,99.90
2023-03-25T14:43:38.083Z,99.90
2023-03-25T14:46:14.419Z,99.90
2023-03-25T14:49:12.084Z,1.00
2023-03-25T14:51:41.084Z,1.00
2023-03-25T14:54:41.398Z,99.90
2023-03-25T14:57:16.019Z,99.90
2023-03-25T14:59:50.350Z,99.90
2023-03-25T15:02:28.796Z,1.00
2023-03-25T15:05:15.657Z,1.00
2023-03-25T15:07:47.360Z,1.00
2023-03-25T15:10:56.556Z,2.80
2023-03-25T15:13:29.364Z,1.00
2023-03-25T15:16:01.530Z,99.90
2023-03-25T15:18:37.327Z,1.00
2023-03-25T15:21:10.475Z,1.00
2023-03-25T15:23:49.196Z,99.90
2023-03-25T15:26:40.518Z,99.90
2023-03-25T15:29:25.857Z,99.90
2023-03-25T15:32:21.693Z,99.90
2023-03-25T15:35:03.760Z,99.90
2023-03-25T15:37:55.000Z,99.90
2023-03-25T15:40:46.582Z,99.90
2023-03-25T15:43:50.187Z,99.90
2023-03-25T15:46:43.287Z,99.90
2023-03-25T15:49:21.430Z,99.90
2023-03-25T15:52:25.561Z,99.90
2023-03-25T15:54:54.948Z,99.90
2023-03-25T15:57:31.912Z,99.90
2023-03-25T16:00:22.652Z,99.90
2023-03-25T16:03:07.976Z,99.90
2023-03-25T16:05:38.376Z,99.90
2023-03-25T16:08:15.776Z,99.90
2023-03-25T16:10:44.720Z,99.90
2023-03-25T16:13:16.703Z,99.90
2023-03-25T16:15:44.601Z,14.30
2023-03-25T16:18:15.861Z,1.00
2023-03-25T16:20:44.134Z,1.00
2023-03-25T16:23:19.772Z,1.00
2023-03-25T16:25:48.867Z,1.00
2023-03-25T16:28:18.780Z,1.00
2023-03-25T16:30:51.389Z,1.00
2023-03-25T16:33:26.894Z,1.00
2023-03-25T16:36:04.266Z,1.00
2023-03-25T16:38:32.624Z,1.00
2023-03-25T16:41:06.745Z,1.00
2023-03-25T16:43:33.703Z,1.00
2023-03-25T16:46:04.216Z,1.00
2023-03-25T16:48:31.367Z,1.00
2023-03-25T16:51:02.356Z,1.00
2023-03-25T16:53:34.098Z,1.00
2023-03-25T16:56:14.071Z,1.00
2023-03-25T16:59:06.949Z,1.00
2023-03-25T17:01:42.510Z,1.00
2023-03-25T17:04:17.037Z,1.00
2023-03-25T17:06:53.003Z,1.00
2023-03-25T17:09:22.884Z,1.00
2023-03-25T17:11:54.434Z,1.00
2023-03-25T17:14:27.042Z,1.00
2023-03-25T17:16:54.717Z,1.00
2023-03-25T17:19:23.109Z,1.00
2023-03-25T17:22:18.765Z,1.00
2023-03-25T17:25:11.264Z,1.00
2023-03-25T17:27:39.204Z,1.00
2023-03-25T17:30:40.610Z,1.00
2023-03-25T17:33:14.234Z,1.00
2023-03-25T17:35:43.181Z,1.00
2023-03-25T17:38:26.643Z,1.00
2023-03-25T17:41:06.424Z,1.00
2023-03-25T17:43:37.013Z,1.00
2023-03-25T17:46:06.051Z,1.00
2023-03-25T17:48:32.795Z,1.00
2023-03-25T17:51:00.656Z,1.00
2023-03-25T17:53:27.567Z,1.00
2023-03-25T17:55:54.858Z,1.00
2023-03-25T17:58:22.775Z,1.00
2023-03-25T18:00:52.050Z,1.00
2023-03-25T18:03:26.385Z,1.00
2023-03-25T18:05:54.322Z,1.00
2023-03-25T18:08:24.079Z,1.00
2023-03-25T18:10:55.767Z,1.00
2023-03-25T18:13:24.058Z,1.00
2023-03-25T18:15:52.754Z,1.00
2023-03-25T18:18:26.177Z,1.00
2023-03-25T18:20:56.131Z,1.00
2023-03-25T18:23:23.752Z,1.00
2023-03-25T18:25:50.655Z,1.00
2023-03-25T18:28:17.740Z,1.00
2023-03-25T18:30:49.925Z,1.00
2023-03-25T18:33:17.398Z,1.00
2023-03-25T18:35:45.424Z,1.00
2023-03-25T18:38:19.126Z,1.00
2023-03-25T18:40:46.325Z,1.00
2023-03-25T18:43:13.149Z,1.00
2023-03-25T18:45:40.102Z,1.00
2023-03-25T18:48:07.563Z,1.00
2023-03-25T18:50:39.721Z,1.00
2023-03-25T18:53:06.579Z,1.00
2023-03-25T18:55:35.293Z,1.00
2023-03-25T18:58:01.980Z,1.00
2023-03-25T19:00:37.183Z,1.00
2023-03-25T19:03:04.408Z,1.00
2023-03-25T19:05:32.472Z,1.00
2023-03-25T19:07:59.147Z,1.00
2023-03-25T19:10:28.765Z,1.00
2023-03-25T19:12:55.968Z,1.00
2023-03-25T19:15:27.859Z,1.00
2023-03-25T19:17:58.510Z,1.00
2023-03-25T19:20:29.559Z,1.00
2023-03-25T19:22:56.553Z,1.00
2023-03-25T19:25:23.347Z,1.00
2023-03-25T19:27:50.567Z,1.00
2023-03-25T19:30:20.247Z,1.00
2023-03-25T19:32:48.521Z,1.00
2023-03-25T19:35:17.317Z,1.00
2023-03-25T19:37:50.812Z,1.00
2023-03-25T19:40:24.110Z,1.00
2023-03-25T19:42:54.609Z,1.00
2023-03-25T19:45:21.796Z,1.00
2023-03-25T19:47:49.491Z,1.00
2023-03-25T19:50:23.417Z,1.00
2023-03-25T19:52:52.155Z,1.00
2023-03-25T19:55:21.128Z,1.00
2023-03-25T19:57:48.701Z,1.00
2023-03-25T20:00:20.170Z,1.00
2023-03-25T20:02:49.554Z,1.00
2023-03-25T20:05:16.758Z,1.00
2023-03-25T20:07:46.108Z,1.00
2023-03-25T20:10:19.994Z,1.00
2023-03-25T20:12:48.873Z,1.00
2023-03-25T20:15:17.454Z,1.00
2023-03-25T20:17:44.433Z,1.00
2023-03-25T20:20:13.242Z,1.00
2023-03-25T20:22:40.815Z,1.00
2023-03-25T20:25:08.847Z,1.00
2023-03-25T20:27:36.287Z,1.00
2023-03-25T20:30:05.645Z,1.00
2023-03-25T20:32:40.715Z,1.00
2023-03-25T20:35:10.520Z,1.00
2023-03-25T20:37:39.652Z,1.00
2023-03-25T20:40:11.237Z,1.00
2023-03-25T20:42:43.312Z,1.00
2023-03-25T20:45:13.751Z,74.50
2023-03-25T20:47:41.613Z,62.40
2023-03-25T20:50:12.843Z,99.90
2023-03-25T20:52:39.916Z,99.90
2023-03-25T20:55:07.609Z,1.00
2023-03-25T20:57:34.428Z,63.40
2023-03-25T21:00:01.130Z,99.90
2023-03-25T21:02:28.358Z,99.90
2023-03-25T21:04:58.343Z,99.90
2023-03-25T21:07:30.417Z,99.90
2023-03-25T21:09:57.828Z,99.90
2023-03-25T21:12:32.814Z,99.90
2023-03-25T21:15:09.221Z,99.90
2023-03-25T21:17:36.083Z,99.90
2023-03-25T21:20:06.248Z,99.90
2023-03-25T21:22:33.453Z,99.90
2023-03-25T21:25:00.376Z,99.90
2023-03-25T21:27:39.382Z,99.90
2023-03-25T21:30:09.770Z,99.90
2023-03-25T21:32:38.043Z,99.90
2023-03-25T21:35:05.284Z,99.90
2023-03-25T21:37:37.687Z,99.90
2023-03-25T21:40:08.275Z,99.90
2023-03-25T21:42:38.267Z,99.90
2023-03-25T21:45:07.346Z,99.90
2023-03-25T21:47:36.020Z,99.90
2023-03-25T21:50:07.787Z,99.90
2023-03-25T21:52:34.628Z,99.90
2023-03-25T21:55:01.754Z,99.90
2023-03-25T21:57:30.565Z,99.90
2023-03-25T21:59:57.521Z,99.90
2023-03-25T22:02:25.592Z,99.90
2023-03-25T22:04:52.512Z,99.90
2023-03-25T22:07:19.226Z,99.90
2023-03-25T22:09:48.021Z,99.90
2023-03-25T22:12:14.768Z,99.90
2023-03-25T22:14:41.579Z,99.90
2023-03-25T22:17:08.411Z,99.90
2023-03-25T22:19:35.556Z,99.90
2023-03-25T22:22:03.267Z,99.90
2023-03-25T22:24:30.709Z,99.90
2023-03-25T22:26:57.467Z,99.90
2023-03-25T22:29:24.197Z,99.90
2023-03-25T22:31:55.667Z,99.90
2023-03-25T22:34:22.485Z,99.90
2023-03-25T22:36:50.216Z,99.90
2023-03-25T22:39:18.536Z,99.90
2023-03-25T22:41:45.727Z,99.90
2023-03-25T22:44:14.930Z,99.90
2023-03-25T22:46:41.709Z,99.90
2023-03-25T22:49:08.540Z,99.90
2023-03-25T22:51:35.398Z,99.90
2023-03-25T22:54:02.074Z,99.90
2023-03-25T22:56:33.791Z,99.90
2023-03-25T22:59:01.983Z,99.90
2023-03-25T23:01:29.246Z,99.90
2023-03-25T23:03:57.505Z,99.90
2023-03-25T23:06:25.997Z,99.90
2023-03-25T23:08:55.891Z,99.90
2023-03-25T23:11:25.427Z,99.90
2023-03-25T23:13:56.158Z,99.90
2023-03-25T23:16:25.446Z,99.90
2023-03-25T23:18:53.249Z,99.90
2023-03-25T23:21:22.853Z,99.90
2023-03-25T23:23:52.614Z,99.90
2023-03-25T23:26:26.450Z,99.90
2023-03-25T23:28:56.458Z,99.90
2023-03-25T23:31:28.521Z,99.90
2023-03-25T23:33:58.136Z,99.90
2023-03-25T23:36:26.087Z,99.90
2023-03-25T23:38:53.645Z,99.90
2023-03-25T23:41:25.771Z,99.90
2023-03-25T23:43:54.044Z,99.90
2023-03-25T23:46:22.136Z,99.90
2023-03-25T23:48:49.302Z,99.90
2023-03-25T23:51:20.460Z,99.90
2023-03-25T23:53:48.844Z,99.90
2023-03-25T23:56:17.734Z,99.90
2023-03-25T23:58:47.188Z,99.90
